Flight Track Log - Related Links

Times and Time Zones

All times are in EDT time to prevent confusion due to time zone crossing. See the SKW4965 flight status page for this flight to view local times or setup timezone preferences in your user account.

Time Position Orientation Groundspeed Altitude Reporting Facility
EDT Latitude Longitude Course Direction KTS MPH feet Rate Location/Type
Fri 09:32:00 AM 29.9413 -95.7053 265° West  Level FlightAware Approximate
Fri 09:33:00 AM 29.9321 -95.8304 264° West  Level FlightAware Approximate
Fri 09:34:00 AM 29.9207 -95.9553 264° West  Level FlightAware Approximate
Fri 09:35:00 AM 29.9225 -96.0801 278° West  Level FlightAware Approximate
Fri 09:36:00 AM 29.9333 -96.2048 270° West  Level FlightAware Approximate
Fri 09:37:00 AM 29.9391 -96.3301 274° West  Level FlightAware Approximate
Fri 09:38:00 AM 29.9464 -96.4554 274° West  Level FlightAware Approximate
Fri 09:39:00 AM 29.9584 -96.5793 288° West  Level FlightAware Approximate
Fri 09:40:00 AM 29.9925 -96.6986 288° West  Level FlightAware Approximate
Fri 09:41:00 AM 30.0324 -96.8149 300° West  Level FlightAware Approximate
Fri 09:42:00 AM 30.0562 -96.9354 291° West  Level FlightAware Approximate
Fri 09:43:00 AM 30.0954 -97.0527 291° West  Level FlightAware Approximate
Fri 09:44:00 AM 30.1301 -97.1719 288° West  Level FlightAware Approximate
Fri 09:45:00 AM 30.1667 -97.2856 270° West  Level FlightAware Approximate
Fri 09:46:00 AM 30.1667 -97.4115 270° West  Level FlightAware Approximate
Fri 09:47:00 AM 30.1833 -97.5337 270° West  Level FlightAware Approximate
Fri 09:48:00 AM 30.1833 -97.6596 270° West  Level FlightAware Approximate
Fri 09:49:00 AM 30.1833 -97.6667 270° West  Level FlightAware Approximate
Fri 09:50:00 AM 30.1945 -97.6699 270° West  Level Estimated
Fri 09:51:00 AM 30.1945 -97.6699 270° West  Level Estimated
Fri 09:52:00 AM 30.1945 -97.6699 270° West  Level Estimated
Fri 09:53:00 AM 30.1945 -97.6699 270° West  Level Estimated
Fri 09:54:00 AM 30.1945 -97.6699 270° West  Level Estimated
Fri 09:55:00 AM 30.1945 -97.6699 270° West  Level Estimated
Fri 09:56:00 AM 30.1945 -97.6699 270° West  Level Estimated
Fri 09:57:00 AM 30.1945 -97.6699 270° West  Level Estimated
Fri 09:58:00 AM 30.1945 -97.6699 270° West  Level Estimated
Fri 09:59:00 AM 30.1945 -97.6699 270° West  Level Estimated
Fri 10:00:00 AM 30.1945 -97.6699 270° West  Level Estimated

Login

Don't have an account? Register now (free) for customized features, flight alerts, and more!